createdAt,value
2023-05-20T00:02:04.904Z,2.75
2023-05-20T00:04:22.096Z,2.63
2023-05-20T00:06:39.554Z,3.28
2023-05-20T00:08:56.543Z,2.90
2023-05-20T00:11:13.827Z,3.00
2023-05-20T00:13:30.933Z,2.92
2023-05-20T00:15:48.329Z,2.85
2023-05-20T00:18:05.767Z,2.83
2023-05-20T00:20:23.133Z,2.50
2023-05-20T00:22:40.492Z,3.15
2023-05-20T00:24:59.532Z,2.92
2023-05-20T00:27:16.838Z,2.60
2023-05-20T00:29:33.865Z,2.67
2023-05-20T00:31:51.676Z,2.63
2023-05-20T00:34:09.144Z,2.58
2023-05-20T00:36:27.122Z,2.70
2023-05-20T00:38:44.862Z,3.13
2023-05-20T00:41:02.384Z,2.60
2023-05-20T00:43:19.390Z,2.20
2023-05-20T00:45:39.876Z,2.30
2023-05-20T00:47:57.379Z,2.40
2023-05-20T00:50:15.124Z,2.72
2023-05-20T00:52:33.171Z,2.53
2023-05-20T00:54:50.933Z,2.90
2023-05-20T00:57:08.340Z,2.28
2023-05-20T00:59:26.666Z,2.53
2023-05-20T01:01:44.018Z,2.28
2023-05-20T01:04:01.516Z,2.33
2023-05-20T01:06:18.437Z,2.22
2023-05-20T01:08:35.699Z,2.35
2023-05-20T01:10:52.648Z,1.88
2023-05-20T01:13:09.632Z,2.30
2023-05-20T01:15:26.600Z,2.30
2023-05-20T01:17:43.602Z,2.40
2023-05-20T01:20:00.878Z,2.50
2023-05-20T01:22:18.185Z,2.20
2023-05-20T01:24:35.833Z,2.20
2023-05-20T01:26:53.189Z,2.35
2023-05-20T01:29:10.496Z,2.45
2023-05-20T01:31:27.476Z,2.28
2023-05-20T01:33:44.859Z,2.33
2023-05-20T01:36:02.142Z,2.45
2023-05-20T01:38:19.540Z,2.30
2023-05-20T01:40:36.550Z,2.50
2023-05-20T01:42:53.862Z,2.30
2023-05-20T01:45:10.800Z,2.70
2023-05-20T01:47:28.141Z,2.50
2023-05-20T01:49:45.517Z,2.70
2023-05-20T01:52:03.790Z,2.38
2023-05-20T01:54:21.093Z,2.22
2023-05-20T01:56:38.380Z,2.38
2023-05-20T01:58:56.972Z,2.22
2023-05-20T02:01:14.423Z,2.55
2023-05-20T02:03:31.685Z,2.47
2023-05-20T02:05:48.782Z,2.38
2023-05-20T02:08:05.891Z,2.20
2023-05-20T02:10:23.253Z,2.60
2023-05-20T02:12:40.500Z,2.38
2023-05-20T02:14:57.562Z,2.60
2023-05-20T02:17:14.844Z,2.70
2023-05-20T02:19:32.246Z,2.47
2023-05-20T02:21:49.671Z,2.50
2023-05-20T02:24:07.044Z,2.40
2023-05-20T02:26:24.001Z,2.17
2023-05-20T02:28:41.267Z,2.83
2023-05-20T02:30:58.985Z,2.40
2023-05-20T02:33:16.348Z,2.40
2023-05-20T02:35:33.808Z,2.30
2023-05-20T02:37:51.366Z,2.42
2023-05-20T02:40:09.742Z,2.45
2023-05-20T02:42:26.734Z,2.35
2023-05-20T02:44:43.926Z,2.72
2023-05-20T02:47:01.156Z,2.40
2023-05-20T02:49:18.072Z,2.63
2023-05-20T02:51:35.395Z,2.85
2023-05-20T02:53:52.366Z,2.63
2023-05-20T02:56:10.639Z,2.50
2023-05-20T02:58:27.904Z,2.78
2023-05-20T03:00:44.854Z,2.75
2023-05-20T03:03:02.699Z,2.47
2023-05-20T03:05:19.842Z,2.53
2023-05-20T03:07:37.566Z,2.40
2023-05-20T03:09:54.917Z,2.80
2023-05-20T03:12:12.330Z,2.88
2023-05-20T03:14:29.267Z,2.38
2023-05-20T03:16:46.262Z,2.65
2023-05-20T03:19:03.590Z,2.60
2023-05-20T03:21:21.289Z,2.42
2023-05-20T03:23:38.608Z,2.50
2023-05-20T03:25:55.554Z,2.70
2023-05-20T03:28:12.932Z,2.67
2023-05-20T03:30:30.171Z,2.85
2023-05-20T03:32:47.635Z,2.60
2023-05-20T03:35:05.070Z,2.55
2023-05-20T03:37:22.036Z,2.78
2023-05-20T03:39:39.013Z,2.70
2023-05-20T03:41:56.344Z,2.97
2023-05-20T03:44:13.634Z,2.78
2023-05-20T03:46:30.598Z,2.75
2023-05-20T03:48:47.992Z,3.65
2023-05-20T03:51:05.331Z,3.40
2023-05-20T03:53:22.626Z,4.15
2023-05-20T03:55:39.944Z,3.40
2023-05-20T03:57:57.022Z,4.38
2023-05-20T04:00:14.281Z,4.40
2023-05-20T04:02:31.775Z,4.40
2023-05-20T04:04:49.135Z,4.38
2023-05-20T04:07:06.505Z,4.97
2023-05-20T04:09:23.791Z,4.35
2023-05-20T04:11:41.511Z,5.25
2023-05-20T04:13:58.429Z,4.18
2023-05-20T04:16:15.547Z,4.00
2023-05-20T04:18:32.517Z,3.80
2023-05-20T04:20:49.855Z,3.83
2023-05-20T04:23:07.209Z,3.85
2023-05-20T04:25:24.233Z,3.60
2023-05-20T04:27:41.893Z,3.60
2023-05-20T04:29:59.174Z,3.50
2023-05-20T04:32:16.139Z,3.42
2023-05-20T04:34:33.177Z,3.60
2023-05-20T04:36:51.421Z,3.33
2023-05-20T04:39:08.757Z,3.42
2023-05-20T04:41:26.086Z,3.53
2023-05-20T04:43:43.832Z,3.13
2023-05-20T04:46:01.164Z,3.65
2023-05-20T04:48:18.117Z,3.90
2023-05-20T04:50:35.435Z,3.40
2023-05-20T04:52:52.845Z,3.40
2023-05-20T04:55:10.133Z,3.40
2023-05-20T04:57:27.820Z,3.30
2023-05-20T04:59:44.743Z,3.40
2023-05-20T05:02:02.105Z,3.08
2023-05-20T05:04:19.335Z,3.50
2023-05-20T05:06:36.733Z,3.60
2023-05-20T05:08:56.453Z,3.40
2023-05-20T05:11:13.347Z,3.40
2023-05-20T05:13:31.615Z,3.35
2023-05-20T05:15:48.609Z,3.38
2023-05-20T05:18:05.965Z,3.63
2023-05-20T05:20:23.187Z,3.40
2023-05-20T05:22:40.342Z,3.17
2023-05-20T05:24:58.101Z,3.30
2023-05-20T05:27:15.373Z,2.75
2023-05-20T05:29:32.691Z,3.05
2023-05-20T05:31:50.088Z,3.05
2023-05-20T05:34:08.416Z,3.20
2023-05-20T05:36:26.299Z,3.40
2023-05-20T05:38:43.642Z,3.40
2023-05-20T05:41:00.904Z,3.15
2023-05-20T05:43:18.262Z,2.95
2023-05-20T05:45:36.605Z,3.35
2023-05-20T05:47:54.053Z,3.03
2023-05-20T05:50:11.113Z,3.00
2023-05-20T05:52:28.383Z,3.25
2023-05-20T05:54:45.655Z,3.20
2023-05-20T05:57:04.504Z,3.40
2023-05-20T05:59:22.754Z,3.33
2023-05-20T06:01:40.085Z,3.40
2023-05-20T06:03:57.674Z,3.50
2023-05-20T06:06:15.035Z,3.65
2023-05-20T06:08:32.370Z,3.53
2023-05-20T06:10:49.709Z,3.47
2023-05-20T06:13:06.733Z,3.65
2023-05-20T06:15:23.759Z,3.88
2023-05-20T06:17:40.716Z,3.97
2023-05-20T06:19:58.354Z,3.92
2023-05-20T06:22:15.648Z,3.55
2023-05-20T06:24:32.985Z,3.70
2023-05-20T06:26:50.376Z,3.40
2023-05-20T06:29:07.725Z,3.78
2023-05-20T06:31:25.804Z,3.88
2023-05-20T06:33:43.224Z,4.15
2023-05-20T06:36:01.167Z,3.53
2023-05-20T06:38:19.304Z,4.18
2023-05-20T06:40:36.685Z,3.97
2023-05-20T06:42:53.997Z,4.30
2023-05-20T06:45:11.644Z,4.38
2023-05-20T06:47:29.062Z,4.40
2023-05-20T06:49:47.658Z,4.55
2023-05-20T06:52:05.870Z,3.55
2023-05-20T06:54:22.850Z,3.67
2023-05-20T06:56:41.071Z,4.32
2023-05-20T06:58:58.358Z,4.80
2023-05-20T07:01:17.790Z,4.38
2023-05-20T07:03:35.219Z,4.65
2023-05-20T07:05:52.551Z,4.68
2023-05-20T07:08:09.594Z,4.72
2023-05-20T07:10:26.989Z,4.93
2023-05-20T07:12:44.096Z,4.13
2023-05-20T07:15:01.420Z,4.32
2023-05-20T07:17:18.718Z,4.97
2023-05-20T07:19:35.668Z,4.40
2023-05-20T07:21:52.914Z,4.88
2023-05-20T07:24:10.279Z,4.95
2023-05-20T07:26:27.295Z,4.85
2023-05-20T07:28:44.619Z,4.57
2023-05-20T07:31:01.672Z,4.80
2023-05-20T07:33:19.003Z,5.18
2023-05-20T07:35:36.579Z,5.03
2023-05-20T07:37:53.605Z,5.78
2023-05-20T07:40:10.932Z,5.15
2023-05-20T07:42:28.243Z,5.50
2023-05-20T07:44:45.604Z,5.65
2023-05-20T07:47:02.971Z,5.60
2023-05-20T07:49:20.243Z,5.22
2023-05-20T07:51:37.656Z,5.22
2023-05-20T07:53:54.904Z,5.88
2023-05-20T07:56:12.277Z,5.75
2023-05-20T07:58:29.621Z,4.97
2023-05-20T08:00:46.919Z,5.10
2023-05-20T08:03:04.022Z,5.40
2023-05-20T08:05:21.660Z,5.55
2023-05-20T08:07:38.957Z,4.88
2023-05-20T08:09:56.266Z,5.00
2023-05-20T08:12:13.566Z,5.40
2023-05-20T08:14:30.960Z,4.72
2023-05-20T08:16:48.251Z,5.65
2023-05-20T08:19:05.400Z,4.85
2023-05-20T08:21:22.727Z,6.00
2023-05-20T08:23:40.621Z,5.40
2023-05-20T08:25:58.086Z,5.28
2023-05-20T08:28:15.426Z,5.25
2023-05-20T08:30:32.368Z,5.82
2023-05-20T08:32:49.668Z,6.15
2023-05-20T08:35:06.704Z,5.40
2023-05-20T08:37:24.010Z,5.20
2023-05-20T08:39:41.342Z,7.55
2023-05-20T08:41:58.473Z,5.97
2023-05-20T08:44:15.728Z,5.53
2023-05-20T08:46:33.687Z,5.50
2023-05-20T08:48:51.021Z,5.35
2023-05-20T08:51:08.376Z,5.85
2023-05-20T08:53:25.308Z,5.60
2023-05-20T08:55:42.586Z,5.70
2023-05-20T08:58:00.216Z,5.13
2023-05-20T09:00:17.631Z,5.93
2023-05-20T09:02:34.899Z,5.40
2023-05-20T09:04:52.248Z,5.65
2023-05-20T09:07:09.583Z,5.63
2023-05-20T09:09:26.976Z,5.60
2023-05-20T09:11:44.377Z,5.30
2023-05-20T09:14:01.735Z,5.10
2023-05-20T09:16:19.156Z,5.55
2023-05-20T09:18:36.643Z,5.63
2023-05-20T09:20:53.573Z,5.85
2023-05-20T09:23:10.873Z,6.05
2023-05-20T09:25:27.864Z,6.13
2023-05-20T09:27:45.269Z,6.40
2023-05-20T09:30:02.641Z,5.30
2023-05-20T09:32:19.612Z,5.75
2023-05-20T09:34:36.918Z,5.32
2023-05-20T09:36:54.009Z,5.55
2023-05-20T09:39:10.921Z,6.13
2023-05-20T09:41:28.197Z,6.03
2023-05-20T09:43:45.414Z,5.78
2023-05-20T09:46:02.818Z,6.43
2023-05-20T09:48:20.220Z,6.15
2023-05-20T09:50:37.555Z,5.82
2023-05-20T09:52:55.936Z,5.13
2023-05-20T09:55:13.308Z,5.72
2023-05-20T09:57:30.646Z,5.95
2023-05-20T09:59:48.402Z,4.80
2023-05-20T10:02:05.851Z,5.57
2023-05-20T10:04:22.917Z,5.55
2023-05-20T10:06:40.626Z,5.70
2023-05-20T10:08:58.017Z,6.38
2023-05-20T10:11:15.382Z,6.63
2023-05-20T10:13:33.609Z,5.60
2023-05-20T10:15:50.592Z,5.82
2023-05-20T10:18:07.930Z,6.20
2023-05-20T10:20:25.275Z,5.80
2023-05-20T10:22:42.656Z,5.82
2023-05-20T10:24:59.896Z,6.22
2023-05-20T10:27:16.873Z,5.63
2023-05-20T10:29:33.844Z,5.78
2023-05-20T10:31:51.206Z,6.35
2023-05-20T10:34:08.097Z,5.60
2023-05-20T10:36:25.031Z,5.85
2023-05-20T10:38:42.393Z,6.00
2023-05-20T10:40:59.334Z,6.25
2023-05-20T10:43:16.336Z,6.20
2023-05-20T10:45:33.354Z,6.20
2023-05-20T10:47:50.919Z,6.35
2023-05-20T10:50:08.301Z,6.18
2023-05-20T10:52:25.210Z,5.50
2023-05-20T10:54:42.476Z,5.60
2023-05-20T10:56:59.423Z,5.90
2023-05-20T10:59:16.789Z,5.70
2023-05-20T11:01:33.747Z,5.47
2023-05-20T11:03:50.756Z,5.57
2023-05-20T11:06:07.815Z,5.50
2023-05-20T11:08:29.238Z,5.15
2023-05-20T11:10:46.896Z,5.50
2023-05-20T11:13:04.257Z,5.30
2023-05-20T11:15:22.024Z,5.90
2023-05-20T11:17:38.988Z,6.00
2023-05-20T11:19:56.260Z,5.78
2023-05-20T11:22:13.163Z,5.38
2023-05-20T11:24:30.459Z,5.82
2023-05-20T11:26:48.144Z,5.63
2023-05-20T11:29:05.124Z,5.80
2023-05-20T11:31:23.418Z,5.55
2023-05-20T11:33:40.745Z,5.80
2023-05-20T11:35:58.141Z,5.82
2023-05-20T11:38:15.522Z,5.63
2023-05-20T11:40:39.017Z,5.90
2023-05-20T11:43:03.800Z,5.18
2023-05-20T11:45:20.810Z,5.85
2023-05-20T11:47:38.133Z,5.55
2023-05-20T11:49:55.379Z,5.20
2023-05-20T11:52:12.716Z,5.50
2023-05-20T11:54:30.667Z,5.40
2023-05-20T11:56:47.947Z,4.97
2023-05-20T11:59:05.261Z,5.38
2023-05-20T12:01:23.400Z,5.00
2023-05-20T12:03:41.223Z,5.15
2023-05-20T12:05:58.344Z,5.75
2023-05-20T12:08:15.304Z,5.40
2023-05-20T12:10:32.692Z,6.00
2023-05-20T12:12:49.745Z,5.90
2023-05-20T12:15:07.059Z,5.90
2023-05-20T12:17:25.441Z,6.07
2023-05-20T12:19:42.492Z,6.35
2023-05-20T12:22:00.511Z,6.00
2023-05-20T12:24:17.518Z,6.53
2023-05-20T12:26:34.444Z,6.05
2023-05-20T12:28:51.811Z,6.35
2023-05-20T12:31:09.221Z,6.32
2023-05-20T12:33:26.290Z,6.78
2023-05-20T12:35:43.595Z,6.90
2023-05-20T12:38:00.929Z,6.38
2023-05-20T12:40:17.972Z,6.65
2023-05-20T12:42:35.402Z,7.30
2023-05-20T12:44:52.914Z,6.88
2023-05-20T12:47:10.285Z,6.50
2023-05-20T12:49:27.329Z,6.63
2023-05-20T12:51:44.672Z,6.22
2023-05-20T12:54:01.994Z,7.05
2023-05-20T12:56:19.297Z,7.53
2023-05-20T12:58:36.733Z,6.65
2023-05-20T13:00:53.739Z,7.03
2023-05-20T13:03:11.402Z,6.75
2023-05-20T13:05:29.337Z,6.82
2023-05-20T13:07:46.705Z,6.97
2023-05-20T13:10:04.064Z,7.03
2023-05-20T13:12:22.415Z,7.05
2023-05-20T13:14:39.442Z,7.05
2023-05-20T13:16:57.641Z,6.95
2023-05-20T13:19:15.021Z,7.35
2023-05-20T13:21:32.038Z,6.97
2023-05-20T13:23:49.415Z,6.97
2023-05-20T13:26:06.806Z,7.13
2023-05-20T13:28:23.798Z,7.00
2023-05-20T13:30:41.128Z,6.50
2023-05-20T13:32:58.128Z,7.50
2023-05-20T13:35:15.137Z,6.43
2023-05-20T13:37:32.458Z,7.15
2023-05-20T13:39:49.814Z,7.30
2023-05-20T13:42:06.767Z,6.97
2023-05-20T13:44:23.806Z,7.30
2023-05-20T13:46:41.731Z,7.22
2023-05-20T13:48:59.149Z,6.90
2023-05-20T13:51:16.422Z,6.90
2023-05-20T13:53:34.347Z,6.90
2023-05-20T13:55:51.675Z,7.25
2023-05-20T13:58:09.050Z,7.40
2023-05-20T14:00:26.400Z,6.97
2023-05-20T14:02:43.845Z,6.82
2023-05-20T14:05:01.612Z,6.75
2023-05-20T14:07:19.607Z,7.10
2023-05-20T14:09:37.055Z,7.05
2023-05-20T14:11:54.588Z,7.55
2023-05-20T14:14:11.948Z,7.70
2023-05-20T14:16:29.428Z,7.20
2023-05-20T14:18:47.824Z,7.20
2023-05-20T14:21:05.039Z,7.18
2023-05-20T14:23:22.391Z,7.45
2023-05-20T14:25:39.736Z,7.63
2023-05-20T14:27:57.015Z,7.45
2023-05-20T14:30:14.293Z,7.03
2023-05-20T14:32:32.612Z,7.32
2023-05-20T14:34:49.973Z,7.22
2023-05-20T14:37:06.936Z,7.30
2023-05-20T14:39:24.214Z,7.40
2023-05-20T14:41:43.346Z,7.38
2023-05-20T14:44:00.787Z,7.50
2023-05-20T14:46:17.903Z,7.63
2023-05-20T14:48:35.287Z,7.65
2023-05-20T14:50:53.739Z,7.50
2023-05-20T14:53:11.129Z,7.60
2023-05-20T14:55:28.466Z,7.85
2023-05-20T14:57:45.814Z,7.68
2023-05-20T15:00:03.230Z,7.75
2023-05-20T15:02:20.630Z,8.77
2023-05-20T15:04:37.933Z,10.70
2023-05-20T15:06:55.282Z,8.95
2023-05-20T15:09:12.718Z,8.52
2023-05-20T15:11:29.732Z,8.07
2023-05-20T15:13:49.463Z,8.07
2023-05-20T15:16:06.486Z,8.23
2023-05-20T15:18:23.825Z,7.85
2023-05-20T15:20:40.998Z,7.60
2023-05-20T15:23:00.927Z,7.95
2023-05-20T15:25:18.738Z,8.38
2023-05-20T15:27:36.085Z,7.82
2023-05-20T15:29:53.404Z,8.18
2023-05-20T15:32:10.689Z,7.88
2023-05-20T15:34:28.002Z,8.30
2023-05-20T15:36:45.372Z,8.07
2023-05-20T15:39:02.850Z,7.95
2023-05-20T15:41:20.185Z,7.95
2023-05-20T15:43:37.571Z,8.23
2023-05-20T15:45:54.932Z,8.20
2023-05-20T15:48:12.294Z,8.38
2023-05-20T15:50:29.735Z,8.68
2023-05-20T15:52:47.145Z,8.70
2023-05-20T15:55:04.164Z,8.57
2023-05-20T15:57:21.082Z,8.13
2023-05-20T15:59:38.417Z,8.90
2023-05-20T16:01:55.656Z,8.77
2023-05-20T16:04:12.771Z,8.80
2023-05-20T16:06:29.845Z,8.65
2023-05-20T16:08:48.123Z,8.82
2023-05-20T16:11:05.084Z,9.13
2023-05-20T16:13:22.392Z,8.60
2023-05-20T16:15:39.343Z,8.65
2023-05-20T16:17:56.446Z,8.63
2023-05-20T16:20:14.488Z,8.80
2023-05-20T16:22:32.824Z,8.63
2023-05-20T16:24:51.433Z,8.50
2023-05-20T16:27:08.711Z,8.68
2023-05-20T16:29:27.042Z,8.38
2023-05-20T16:31:44.713Z,8.80
2023-05-20T16:34:01.717Z,8.70
2023-05-20T16:36:18.984Z,8.57
2023-05-20T16:38:36.121Z,8.32
2023-05-20T16:40:53.481Z,8.48
2023-05-20T16:43:11.830Z,8.40
2023-05-20T16:45:29.264Z,8.82
2023-05-20T16:47:46.686Z,8.27
2023-05-20T16:50:04.072Z,8.18
2023-05-20T16:52:21.482Z,8.27
2023-05-20T16:54:38.956Z,7.80
2023-05-20T16:56:57.225Z,8.52
2023-05-20T16:59:14.348Z,8.40
2023-05-20T17:01:32.666Z,8.40
2023-05-20T17:03:50.058Z,7.90
2023-05-20T17:06:07.520Z,8.95
2023-05-20T17:08:24.916Z,8.43
2023-05-20T17:10:42.194Z,8.10
2023-05-20T17:12:59.564Z,8.30
2023-05-20T17:15:16.909Z,8.35
2023-05-20T17:17:34.246Z,8.35
2023-05-20T17:19:51.616Z,8.40
2023-05-20T17:22:08.566Z,8.55
2023-05-20T17:24:25.892Z,8.23
2023-05-20T17:26:43.142Z,8.52
2023-05-20T17:29:00.501Z,8.38
2023-05-20T17:31:17.805Z,8.38
2023-05-20T17:33:35.220Z,7.85
2023-05-20T17:35:52.568Z,8.65
2023-05-20T17:38:09.690Z,8.43
2023-05-20T17:40:26.998Z,8.73
2023-05-20T17:42:44.422Z,8.90
2023-05-20T17:45:01.531Z,8.27
2023-05-20T17:47:18.612Z,8.52
2023-05-20T17:49:36.925Z,8.80
2023-05-20T17:51:54.261Z,8.52
2023-05-20T17:54:11.609Z,8.35
2023-05-20T17:56:28.693Z,9.02
2023-05-20T17:58:45.811Z,9.02
2023-05-20T18:01:03.132Z,8.68
2023-05-20T18:03:21.519Z,8.98
2023-05-20T18:05:38.933Z,8.60
2023-05-20T18:07:56.276Z,8.60
2023-05-20T18:10:13.956Z,8.85
2023-05-20T18:12:31.202Z,8.95
2023-05-20T18:14:48.496Z,8.80
2023-05-20T18:17:05.888Z,9.70
2023-05-20T18:19:23.098Z,9.05
2023-05-20T18:21:40.458Z,9.60
2023-05-20T18:23:57.797Z,9.43
2023-05-20T18:26:15.163Z,8.95
2023-05-20T18:28:32.461Z,9.05
2023-05-20T18:30:49.758Z,8.88
2023-05-20T18:33:07.485Z,9.18
2023-05-20T18:35:25.185Z,9.13
2023-05-20T18:37:42.550Z,8.65
2023-05-20T18:39:59.832Z,9.18
2023-05-20T18:42:18.111Z,9.65
2023-05-20T18:44:35.438Z,8.52
2023-05-20T18:46:53.366Z,9.52
2023-05-20T18:49:10.712Z,8.68
2023-05-20T18:51:28.074Z,9.27
2023-05-20T18:53:45.170Z,9.50
2023-05-20T18:56:02.555Z,9.35
2023-05-20T18:58:20.053Z,9.30
2023-05-20T19:00:37.556Z,9.32
2023-05-20T19:02:54.954Z,9.63
2023-05-20T19:05:12.368Z,9.45
2023-05-20T19:07:29.705Z,9.60
2023-05-20T19:09:47.474Z,9.75
2023-05-20T19:12:05.828Z,9.88
2023-05-20T19:14:23.145Z,10.18
2023-05-20T19:16:40.527Z,10.38
2023-05-20T19:18:57.435Z,10.88
2023-05-20T19:21:14.748Z,10.77
2023-05-20T19:23:31.889Z,10.00
2023-05-20T19:25:49.304Z,11.10
2023-05-20T19:28:06.654Z,10.25
2023-05-20T19:30:23.964Z,10.57
2023-05-20T19:32:41.430Z,9.98
2023-05-20T19:34:59.140Z,9.77
2023-05-20T19:37:16.507Z,9.90
2023-05-20T19:39:33.986Z,9.82
2023-05-20T19:41:51.388Z,10.20
2023-05-20T19:44:08.513Z,9.60
2023-05-20T19:46:26.071Z,9.80
2023-05-20T19:48:43.486Z,10.73
2023-05-20T19:51:01.804Z,10.48
2023-05-20T19:53:19.183Z,10.57
2023-05-20T19:55:37.807Z,10.70
2023-05-20T19:57:56.100Z,11.20
2023-05-20T20:00:13.736Z,10.85
2023-05-20T20:02:31.114Z,11.05
2023-05-20T20:04:48.217Z,10.98
2023-05-20T20:07:07.996Z,10.52
2023-05-20T20:09:27.328Z,11.00
2023-05-20T20:11:45.360Z,10.70
2023-05-20T20:14:02.732Z,10.65
2023-05-20T20:16:19.899Z,10.73
2023-05-20T20:18:37.347Z,10.70
2023-05-20T20:20:55.015Z,10.77
2023-05-20T20:23:12.952Z,11.32
2023-05-20T20:25:29.949Z,10.23
2023-05-20T20:27:48.345Z,10.90
2023-05-20T20:30:05.644Z,11.98
2023-05-20T20:32:24.045Z,11.80
2023-05-20T20:34:41.426Z,11.80
2023-05-20T20:36:58.713Z,11.85
2023-05-20T20:39:15.996Z,11.82
2023-05-20T20:41:33.306Z,10.77
2023-05-20T20:43:50.678Z,11.13
2023-05-20T20:46:08.157Z,11.93
2023-05-20T20:48:26.265Z,12.18
2023-05-20T20:50:43.601Z,11.65
2023-05-20T20:53:00.721Z,12.50
2023-05-20T20:55:17.914Z,10.98
2023-05-20T20:57:35.232Z,12.15
2023-05-20T20:59:53.950Z,11.10
2023-05-20T21:02:11.300Z,11.68
2023-05-20T21:04:29.070Z,11.40
2023-05-20T21:06:46.262Z,11.65
2023-05-20T21:09:04.521Z,11.93
2023-05-20T21:11:21.594Z,11.60
2023-05-20T21:13:39.501Z,11.90
2023-05-20T21:15:56.729Z,12.20
2023-05-20T21:18:14.825Z,12.43
2023-05-20T21:20:32.141Z,12.65
2023-05-20T21:22:49.133Z,12.20
2023-05-20T21:25:06.374Z,11.75
2023-05-20T21:27:24.440Z,12.25
2023-05-20T21:29:41.532Z,13.00
2023-05-20T21:31:59.823Z,12.23
2023-05-20T21:34:16.749Z,12.90
2023-05-20T21:36:34.093Z,12.45
2023-05-20T21:38:52.533Z,11.55
2023-05-20T21:41:09.905Z,13.73
2023-05-20T21:43:26.981Z,12.75
2023-05-20T21:45:43.974Z,12.60
2023-05-20T21:48:01.367Z,12.63
2023-05-20T21:50:18.747Z,12.75
2023-05-20T21:52:37.000Z,12.18
2023-05-20T21:54:54.406Z,12.23
2023-05-20T21:57:11.689Z,13.00
2023-05-20T21:59:28.749Z,13.40
2023-05-20T22:01:46.221Z,12.85
2023-05-20T22:04:04.441Z,12.60
2023-05-20T22:06:22.114Z,13.05
2023-05-20T22:08:39.224Z,12.95
2023-05-20T22:10:56.607Z,12.63
2023-05-20T22:13:14.374Z,12.93
2023-05-20T22:15:31.517Z,12.70
2023-05-20T22:17:49.915Z,13.65
2023-05-20T22:20:06.939Z,13.60
2023-05-20T22:22:24.852Z,13.85
2023-05-20T22:24:42.113Z,13.07
2023-05-20T22:26:59.316Z,12.80
2023-05-20T22:29:16.557Z,13.35
2023-05-20T22:31:33.890Z,13.02
2023-05-20T22:33:51.024Z,12.80
2023-05-20T22:36:08.158Z,13.48
2023-05-20T22:38:25.118Z,13.57
2023-05-20T22:40:42.058Z,14.18
2023-05-20T22:43:00.281Z,13.63
2023-05-20T22:45:17.259Z,12.77
2023-05-20T22:47:34.672Z,13.80
2023-05-20T22:49:52.082Z,13.20
2023-05-20T22:52:11.326Z,13.50
2023-05-20T22:54:28.668Z,14.07
2023-05-20T22:56:46.024Z,13.48
2023-05-20T22:59:02.954Z,14.43
2023-05-20T23:01:20.722Z,13.73
2023-05-20T23:03:38.098Z,14.23
2023-05-20T23:05:56.058Z,14.75
2023-05-20T23:08:13.385Z,14.13
2023-05-20T23:10:30.448Z,14.65
2023-05-20T23:12:47.853Z,15.38
2023-05-20T23:15:05.157Z,15.48
2023-05-20T23:17:22.398Z,15.38
2023-05-20T23:19:39.700Z,15.18
2023-05-20T23:21:56.814Z,14.48
2023-05-20T23:24:13.799Z,15.15
2023-05-20T23:26:30.844Z,14.90
2023-05-20T23:28:48.018Z,14.07
2023-05-20T23:31:05.060Z,15.10
2023-05-20T23:33:25.041Z,14.85
2023-05-20T23:35:43.048Z,14.38
2023-05-20T23:38:00.125Z,14.93
2023-05-20T23:40:17.478Z,14.40
2023-05-20T23:42:34.992Z,14.85
2023-05-20T23:44:51.941Z,14.70
2023-05-20T23:47:09.222Z,14.23
2023-05-20T23:49:26.547Z,14.65
2023-05-20T23:51:43.810Z,15.65
2023-05-20T23:54:01.106Z,26.67
2023-05-20T23:56:18.357Z,23.55
2023-05-20T23:58:35.781Z,22.05
